Terminal Aerodrome Forecast
Issued by NWS

Home | Current Version | Previous Version | Text Only | Print | Product List | Glossary On
Versions: 1 2 3 4 5 6 7 8 9 10 11 12 13 14 15
000
FTUS43 KICT 281740
TAFCNU
TAF
KCNU 281740Z 2818/2918 21008KT P6SM BKN025
      TEMPO 2818/2819 BKN015
     FM282000 VRB05KT P6SM BKN035
     FM290500 03015G22KT P6SM VCSH OVC025
     FM290800 04015G22KT 5SM -SHRA VCTS OVC015CB
      TEMPO 2910/2914 1SM +SHRA BR OVC008=

USA.gov is the U.S. government's official web portal to all federal, state and local government web resources and services.